This is the latest recevied weather packets stored in our database for station/object GW7204. If no packets are shown the sender has not sent any weather packets the latest 10 day(s).
| Time | Temp. | Humidity | Pressure | Rain* | Wind** | Luminosity | Snow |
|---|---|---|---|---|---|---|---|
| 1777927172 | 21.11° C | 51% | 1008.8 hPa | 0 mm | - | - | - |
| 1777925741 | 21.67° C | 51% | 1008.8 hPa | 0 mm | - | - | - |
| 1777923576 | 22.22° C | 52% | 1008.4 hPa | 0 mm | - | - | - |
| 1777922842 | 22.22° C | 51% | 1008.4 hPa | 0 mm | - | - | - |
| 1777921789 | 21.67° C | 52% | 1008.1 hPa | 0 mm | - | - | - |
| 1777921053 | 23.33° C | 47% | 1008.1 hPa | 0 mm | - | - | - |
| 1777920335 | 23.33° C | 49% | 1008.4 hPa | 0 mm | - | - | - |
| 1777917800 | 21.11° C | 54% | 1008.8 hPa | 0 mm | - | - | - |
| 1777917468 | 21.11° C | 55% | 1008.8 hPa | 0 mm | - | - | - |
| 1777915633 | 21.11° C | 51% | 1008.8 hPa | 0 mm | - | - | - |
| 1777913498 | 21.11° C | 51% | 1008.8 hPa | 0 mm | - | - | - |
| 1777911690 | 19.44° C | 54% | 1009.1 hPa | 0 mm | - | - | - |
| 1777911312 | 19.44° C | 54% | 1009.4 hPa | 0 mm | - | - | - |
| 1777910082 | 19.44° C | 55% | 1009.4 hPa | 0 mm | - | - | - |
| 1777908269 | 17.78° C | 58% | 1009.8 hPa | 0 mm | - | - | - |
| 1777907533 | 17.78° C | 60% | 1009.8 hPa | 0 mm | - | - | - |
| 1777906483 | 16.67° C | 62% | 1009.8 hPa | 0 mm | - | - | - |
| 1777903613 | 14.44° C | 64% | 1010.4 hPa | 0 mm | - | - | - |
| 1777902870 | 13.89° C | 65% | 1010.8 hPa | 0 mm | - | - | - |
| 1777902163 | 13.89° C | 65% | 1010.8 hPa | 0 mm | - | - | - |
| 1777898905 | 12.22° C | 67% | 1010.4 hPa | 0 mm | - | - | - |
| 1777896405 | 7.22° C | 90% | 1010.1 hPa | 0 mm | - | - | - |
| 1777895323 | 5.56° C | 99% | 1010.4 hPa | 0 mm | - | - | - |
| 1777892430 | 3.89° C | 99% | 1010.1 hPa | 0 mm | - | - | - |
| 1777888488 | 4.44° C | 98% | 1010.4 hPa | 0 mm | - | - | - |
* Rain since midnight (hover to see other rain measurements)
** Current wind speed in m/s (hover to see current wind gust speed)